Time;durP1;ratioP1;P1;durP2;ratioP2;P2;SDS_P1;SDS_P2;PMS_P1;PMS_P2;Temp;Humidity;BMP_temperature;BMP_pressure;BME280_temperature;BME280_humidity;BME280_pressure;Samples;Min_cycle;Max_cycle;Signal;HPM_P1;HPM_P2
2021/06/27 00:01:15;;;;;;;15.80;13.80;;;18.00;99.90;;;;;;5075302;28;20263;-62
2021/06/27 00:03:42;;;;;;;18.27;14.50;;;17.90;99.90;;;;;;5075138;28;20201;-62
2021/06/27 00:06:09;;;;;;;19.57;14.03;;;17.90;99.90;;;;;;5074949;28;20240;-62
2021/06/27 00:08:36;;;;;;;16.43;14.33;;;17.80;99.90;;;;;;5075274;28;20201;-62
2021/06/27 00:11:04;;;;;;;15.67;13.90;;;17.80;99.90;;;;;;5074621;28;20278;-62
2021/06/27 00:13:31;;;;;;;19.27;14.33;;;17.80;99.90;;;;;;5074762;28;20239;-62
2021/06/27 00:15:59;;;;;;;18.47;13.63;;;17.70;99.90;;;;;;5074912;28;20251;-62
2021/06/27 00:18:28;;;;;;;17.67;14.83;;;17.60;99.90;;;;;;5075465;28;20205;-62
2021/06/27 00:20:57;;;;;;;19.13;15.37;;;17.60;99.90;;;;;;5074799;28;20201;-63
2021/06/27 00:23:28;;;;;;;16.97;14.10;;;17.60;99.90;;;;;;5074669;28;20254;-62
2021/06/27 00:25:55;;;;;;;19.07;14.47;;;17.60;99.90;;;;;;5074989;28;20232;-62
2021/06/27 00:28:22;;;;;;;16.90;14.60;;;17.50;99.90;;;;;;5074824;28;20278;-62
2021/06/27 00:30:51;;;;;;;16.37;14.43;;;17.50;99.90;;;;;;5074795;28;20634;-62
2021/06/27 00:33:20;;;;;;;19.03;15.87;;;17.50;99.90;;;;;;5074675;28;20208;-63
2021/06/27 00:35:46;;;;;;;18.63;15.23;;;17.50;99.90;;;;;;5074398;28;20236;-62
2021/06/27 00:38:13;;;;;;;18.50;15.27;;;17.50;1.00;;;;;;5074468;28;20212;-62
2021/06/27 00:40:41;;;;;;;18.83;14.77;;;17.40;1.00;;;;;;5074602;28;20201;-62
2021/06/27 00:43:07;;;;;;;20.50;15.27;;;17.40;1.00;;;;;;5074581;28;20209;-62
2021/06/27 00:45:35;;;;;;;19.57;13.90;;;17.30;1.00;;;;;;5074278;28;20232;-62
2021/06/27 00:48:02;;;;;;;18.80;15.67;;;17.30;1.00;;;;;;5074330;28;20216;-62
2021/06/27 00:50:32;;;;;;;21.77;15.23;;;17.30;1.00;;;;;;5074264;28;20274;-62
2021/06/27 00:52:59;;;;;;;18.40;15.33;;;17.20;1.00;;;;;;5074666;28;20205;-62
2021/06/27 00:55:26;;;;;;;18.80;14.93;;;17.30;1.00;;;;;;5074093;28;20225;-62
2021/06/27 00:57:55;;;;;;;17.73;14.33;;;17.20;1.00;;;;;;5074504;28;20208;-62
2021/06/27 01:00:24;;;;;;;20.13;13.67;;;17.20;1.00;;;;;;5073859;28;20205;-62
2021/06/27 01:02:51;;;;;;;17.53;14.20;;;17.20;1.00;;;;;;5074100;28;20231;-62
2021/06/27 01:05:21;;;;;;;17.83;14.17;;;17.20;1.00;;;;;;5073474;28;20240;-62
2021/06/27 01:07:49;;;;;;;21.73;14.60;;;17.20;1.00;;;;;;5073949;28;20743;-62
2021/06/27 01:10:16;;;;;;;18.03;14.30;;;17.10;1.00;;;;;;5073674;28;20205;-62
2021/06/27 01:12:43;;;;;;;17.47;13.93;;;17.10;1.00;;;;;;5074088;28;20436;-62
2021/06/27 01:15:12;;;;;;;16.13;14.17;;;17.10;1.00;;;;;;5073633;28;20229;-62
2021/06/27 01:17:39;;;;;;;18.17;14.50;;;17.10;1.00;;;;;;5073792;28;20201;-62
2021/06/27 01:20:09;;;;;;;16.27;13.40;;;17.00;1.00;;;;;;5073880;28;20282;-62
2021/06/27 01:22:37;;;;;;;16.20;13.73;;;17.00;1.00;;;;;;5073907;28;20205;-62
2021/06/27 01:25:05;;;;;;;17.20;13.67;;;17.00;1.00;;;;;;5073475;28;20317;-62
2021/06/27 01:27:31;;;;;;;18.00;14.17;;;17.00;1.00;;;;;;5073587;28;20646;-62
2021/06/27 01:29:58;;;;;;;15.97;13.67;;;17.00;1.00;;;;;;5073567;28;20209;-63
2021/06/27 01:32:25;;;;;;;15.87;12.97;;;16.90;1.00;;;;;;5073142;28;20229;-62
2021/06/27 01:34:52;;;;;;;16.23;13.17;;;16.90;1.00;;;;;;5073366;28;20244;-62
2021/06/27 01:37:19;;;;;;;16.60;14.07;;;16.80;1.00;;;;;;5073431;28;20205;-62
2021/06/27 01:39:47;;;;;;;16.57;13.43;;;16.80;1.00;;;;;;5073425;28;20200;-62
2021/06/27 01:42:14;;;;;;;14.77;13.17;;;16.70;1.00;;;;;;5073273;28;20267;-62
2021/06/27 01:44:40;;;;;;;16.20;13.17;;;16.70;1.00;;;;;;5072918;28;20228;-62
2021/06/27 01:47:07;;;;;;;16.23;13.00;;;16.70;7.80;;;;;;5073353;28;20205;-62
2021/06/27 01:49:34;;;;;;;17.90;13.50;;;16.70;8.00;;;;;;5073374;28;20209;-62
2021/06/27 01:52:00;;;;;;;15.27;12.97;;;16.70;8.10;;;;;;5073144;28;20229;-62
2021/06/27 01:54:27;;;;;;;18.33;13.53;;;16.70;5.90;;;;;;5072874;28;20205;-62
2021/06/27 01:56:55;;;;;;;14.97;12.47;;;16.60;11.70;;;;;;5073250;28;20565;-62
2021/06/27 01:59:22;;;;;;;15.07;12.90;;;16.60;33.10;;;;;;5072849;28;20205;-62
2021/06/27 02:01:48;;;;;;;16.40;13.17;;;16.60;42.10;;;;;;5073168;28;20624;-62
2021/06/27 02:04:15;;;;;;;16.57;12.90;;;16.60;48.80;;;;;;5073095;28;20213;-63
2021/06/27 02:06:42;;;;;;;13.90;12.50;;;16.50;62.80;;;;;;5072630;28;20246;-62
2021/06/27 02:09:14;;;;;;;16.27;13.00;;;16.50;90.90;;;;;;5072772;28;20205;-62
2021/06/27 02:11:41;;;;;;;15.97;13.10;;;16.50;92.50;;;;;;5072153;28;20220;-62
2021/06/27 02:14:10;;;;;;;17.30;13.80;;;16.50;92.30;;;;;;5072701;28;20209;-62
2021/06/27 02:16:37;;;;;;;15.13;12.83;;;16.50;99.90;;;;;;5072592;28;20285;-62
2021/06/27 02:19:04;;;;;;;16.63;13.67;;;16.40;99.90;;;;;;5072633;28;20205;-62
2021/06/27 02:21:33;;;;;;;16.93;13.80;;;16.40;99.90;;;;;;5072374;28;20200;-62
2021/06/27 02:24:00;;;;;;;14.70;12.80;;;16.30;99.90;;;;;;5072226;28;20669;-62
2021/06/27 02:26:27;;;;;;;17.90;12.97;;;16.30;99.90;;;;;;5072090;28;20258;-62
2021/06/27 02:28:57;;;;;;;16.03;13.43;;;16.30;99.90;;;;;;5072631;28;20208;-62
2021/06/27 02:31:25;;;;;;;17.30;13.43;;;16.30;99.90;;;;;;5072296;28;20312;-62
2021/06/27 02:33:52;;;;;;;17.33;13.07;;;16.30;99.90;;;;;;5072282;28;20208;-62
2021/06/27 02:36:18;;;;;;;16.53;13.37;;;16.30;99.90;;;;;;5072183;28;20251;-62
2021/06/27 02:38:46;;;;;;;17.00;13.17;;;16.20;99.90;;;;;;5072260;28;20209;-62
2021/06/27 02:41:13;;;;;;;15.57;12.90;;;16.20;99.90;;;;;;5072112;28;20250;-62
2021/06/27 02:43:40;;;;;;;14.53;13.03;;;16.20;99.90;;;;;;5072142;28;20208;-62
2021/06/27 02:46:08;;;;;;;17.00;13.27;;;16.20;99.90;;;;;;5072372;28;20304;-62
2021/06/27 02:48:37;;;;;;;17.80;14.07;;;16.20;99.90;;;;;;5072038;28;20213;-62
2021/06/27 02:51:04;;;;;;;15.80;13.40;;;16.10;99.90;;;;;;5072105;28;20248;-62
2021/06/27 02:53:30;;;;;;;18.90;14.20;;;16.10;99.90;;;;;;5071807;28;20209;-62
2021/06/27 02:56:09;;;;;;;15.97;13.10;;;16.10;99.90;;;;;;5072092;28;20250;-63
2021/06/27 02:58:38;;;;;;;16.20;13.77;;;16.10;99.90;;;;;;5072625;28;20299;-62
2021/06/27 03:01:05;;;;;;;18.73;15.10;;;16.00;99.90;;;;;;5072527;28;20208;-62
2021/06/27 03:03:32;;;;;;;14.37;12.87;;;16.00;99.90;;;;;;5071665;28;20254;-63
2021/06/27 03:06:00;;;;;;;19.20;14.90;;;15.90;99.90;;;;;;5071536;28;20712;-63
2021/06/27 03:08:27;;;;;;;16.53;14.30;;;15.90;99.90;;;;;;5071987;28;20282;-62
2021/06/27 03:10:54;;;;;;;17.97;13.63;;;15.90;1.00;;;;;;5071960;28;20251;-62
2021/06/27 03:13:20;;;;;;;17.27;13.70;;;15.90;1.00;;;;;;5072014;28;20250;-62
2021/06/27 03:15:47;;;;;;;18.47;13.87;;;15.90;1.00;;;;;;5071607;28;20228;-62
2021/06/27 03:18:14;;;;;;;17.73;14.50;;;15.90;1.00;;;;;;5071920;28;20204;-62
2021/06/27 03:20:41;;;;;;;16.27;14.20;;;15.90;1.00;;;;;;5071522;28;20209;-61
2021/06/27 03:23:09;;;;;;;16.07;13.87;;;15.80;1.00;;;;;;5074892;28;20251;-62
2021/06/27 03:25:36;;;;;;;18.13;15.23;;;15.80;1.00;;;;;;5075633;28;20229;-62
2021/06/27 03:28:03;;;;;;;20.30;14.03;;;15.80;1.00;;;;;;5075960;28;20205;-62
2021/06/27 03:30:31;;;;;;;17.70;14.20;;;15.80;1.00;;;;;;5075873;28;20200;-62
2021/06/27 03:32:57;;;;;;;18.17;14.50;;;15.80;1.00;;;;;;5075244;28;20224;-62
2021/06/27 03:35:24;;;;;;;17.80;14.27;;;15.80;1.00;;;;;;5074939;28;20808;-62
2021/06/27 03:37:56;;;;;;;17.33;13.33;;;15.80;1.00;;;;;;5075755;28;20201;-62
2021/06/27 03:40:24;;;;;;;14.27;12.73;;;15.80;1.00;;;;;;5075668;28;20553;-61
2021/06/27 03:42:52;;;;;;;16.23;13.50;;;15.80;1.00;;;;;;5075352;28;20668;-62
2021/06/27 03:45:18;;;;;;;16.37;12.97;;;15.80;1.00;;;;;;5075192;28;20229;-62
2021/06/27 03:47:46;;;;;;;17.43;13.17;;;15.80;1.00;;;;;;5075166;28;20205;-62
2021/06/27 03:50:13;;;;;;;17.20;13.33;;;15.80;1.00;;;;;;5075529;28;20258;-62
2021/06/27 03:52:39;;;;;;;16.27;13.40;;;15.80;1.00;;;;;;5075029;28;20228;-61
2021/06/27 03:55:07;;;;;;;15.70;13.40;;;15.80;1.00;;;;;;5075048;28;20239;-62
2021/06/27 03:57:35;;;;;;;15.73;13.77;;;15.80;1.00;;;;;;5075115;28;20255;-62
2021/06/27 04:00:02;;;;;;;16.13;13.70;;;15.90;1.00;;;;;;5075116;28;20201;-62
2021/06/27 04:02:28;;;;;;;19.53;13.40;;;15.90;1.00;;;;;;5074921;28;20259;-62
2021/06/27 04:04:55;;;;;;;14.93;13.20;;;15.90;1.00;;;;;;5074726;28;20237;-62
2021/06/27 04:07:22;;;;;;;16.40;13.47;;;15.90;1.00;;;;;;5075280;28;20362;-62
2021/06/27 04:09:48;;;;;;;16.13;14.20;;;16.00;1.00;;;;;;5074884;28;20258;-62
2021/06/27 04:12:15;;;;;;;16.90;13.80;;;16.00;1.00;;;;;;5074863;28;20588;-62
2021/06/27 04:14:43;;;;;;;15.67;13.97;;;16.10;1.00;;;;;;5074394;28;20586;-62
2021/06/27 04:17:12;;;;;;;16.07;12.87;;;16.10;1.00;;;;;;5074747;28;20205;-62
2021/06/27 04:19:38;;;;;;;15.63;13.70;;;16.20;1.00;;;;;;5074753;28;20209;-62
2021/06/27 04:22:05;;;;;;;15.30;12.87;;;16.30;1.00;;;;;;5074670;28;20649;-62
2021/06/27 04:24:32;;;;;;;15.13;12.80;;;16.40;1.00;;;;;;5074265;28;20852;-62
2021/06/27 04:26:58;;;;;;;14.80;12.67;;;16.50;1.00;;;;;;5074662;28;20205;-62
2021/06/27 04:29:25;;;;;;;13.43;11.90;;;16.60;99.90;;;;;;5074522;28;20651;-62
2021/06/27 04:31:53;;;;;;;13.13;11.73;;;16.60;99.90;;;;;;5074454;28;20237;-62
2021/06/27 04:34:20;;;;;;;14.80;11.67;;;16.80;99.90;;;;;;5073528;28;20738;-62
2021/06/27 04:36:47;;;;;;;12.43;11.13;;;16.90;99.90;;;;;;5074361;28;20258;-62
2021/06/27 04:39:15;;;;;;;13.17;11.57;;;17.00;99.90;;;;;;5074419;28;20201;-62
2021/06/27 04:41:44;;;;;;;14.30;12.17;;;17.10;99.90;;;;;;5073866;28;20229;-62
2021/06/27 04:44:11;;;;;;;13.43;11.70;;;17.30;35.10;;;;;;5074372;28;20243;-62
2021/06/27 04:46:38;;;;;;;14.90;11.63;;;17.40;39.80;;;;;;5074249;28;20229;-62
2021/06/27 04:49:06;;;;;;;11.00;9.77;;;17.50;13.90;;;;;;5074157;28;20267;-62
2021/06/27 04:51:33;;;;;;;11.67;10.30;;;17.60;7.50;;;;;;5074134;28;20227;-62
2021/06/27 04:54:00;;;;;;;14.10;10.57;;;17.70;1.00;;;;;;5074106;28;20255;-62
2021/06/27 04:56:26;;;;;;;16.50;11.07;;;17.80;1.00;;;;;;5073774;28;20228;-62
2021/06/27 04:58:53;;;;;;;11.57;10.37;;;17.80;1.00;;;;;;5074146;28;20649;-62
2021/06/27 05:01:20;;;;;;;14.73;10.87;;;17.90;1.00;;;;;;5074159;28;20258;-62
2021/06/27 05:03:46;;;;;;;13.17;10.70;;;18.00;1.00;;;;;;5073805;28;20201;-62
2021/06/27 05:06:14;;;;;;;12.57;11.03;;;18.00;1.00;;;;;;5073744;28;20290;-62
2021/06/27 05:08:41;;;;;;;14.50;11.43;;;18.00;1.00;;;;;;5073813;28;20254;-62
2021/06/27 05:11:08;;;;;;;13.87;12.13;;;18.10;1.00;;;;;;5073655;28;20255;-62
2021/06/27 05:13:34;;;;;;;19.87;12.07;;;18.10;1.00;;;;;;5073485;28;20704;-62
2021/06/27 05:16:01;;;;;;;15.67;11.70;;;18.20;1.00;;;;;;5073869;28;20245;-62
2021/06/27 05:18:27;;;;;;;19.30;12.20;;;18.30;1.00;;;;;;5073644;28;20562;-62
2021/06/27 05:20:54;;;;;;;15.30;12.80;;;18.30;1.00;;;;;;5073650;28;20209;-62
2021/06/27 05:23:22;;;;;;;15.43;11.53;;;18.40;1.00;;;;;;5073620;28;20248;-62
2021/06/27 05:25:49;;;;;;;17.07;12.20;;;18.40;1.00;;;;;;5073425;28;20647;-62
2021/06/27 05:28:15;;;;;;;15.97;12.20;;;18.50;1.00;;;;;;5073670;28;20227;-62
2021/06/27 05:30:42;;;;;;;16.10;13.27;;;18.60;1.00;;;;;;5073506;28;20261;-62
2021/06/27 05:33:09;;;;;;;14.50;12.43;;;18.60;1.00;;;;;;5073473;28;20321;-62
2021/06/27 05:35:35;;;;;;;15.47;12.10;;;18.60;1.00;;;;;;5073192;28;20603;-62
2021/06/27 05:38:02;;;;;;;13.87;12.17;;;18.70;1.00;;;;;;5073407;28;20208;-62
2021/06/27 05:40:31;;;;;;;15.73;13.50;;;18.70;1.00;;;;;;5073274;28;20205;-62
2021/06/27 05:42:57;;;;;;;14.43;12.30;;;18.80;1.00;;;;;;5073242;28;20205;-62
2021/06/27 05:45:24;;;;;;;14.73;12.03;;;18.90;1.00;;;;;;5072040;28;20228;-62
2021/06/27 05:47:50;;;;;;;17.23;12.93;;;18.90;1.00;;;;;;5072992;28;20692;-62
2021/06/27 05:50:17;;;;;;;15.60;12.17;;;18.90;1.00;;;;;;5073157;28;20209;-62
2021/06/27 05:52:44;;;;;;;15.83;13.17;;;18.90;1.00;;;;;;5072816;28;20727;-62
2021/06/27 05:55:11;;;;;;;14.23;12.47;;;19.00;1.00;;;;;;5072729;28;20278;-62
2021/06/27 05:57:39;;;;;;;17.57;12.07;;;19.00;1.00;;;;;;5073088;28;20262;-62
2021/06/27 06:00:07;;;;;;;15.63;12.20;;;19.10;1.00;;;;;;5073100;28;20209;-62
2021/06/27 06:02:34;;;;;;;16.83;12.50;;;19.00;1.00;;;;;;5072859;28;20212;-62
2021/06/27 06:05:01;;;;;;;13.90;11.77;;;19.10;1.00;;;;;;5072509;28;20237;-62
2021/06/27 06:07:27;;;;;;;13.10;10.80;;;19.20;1.00;;;;;;5072912;28;20189;-62
2021/06/27 06:09:54;;;;;;;13.40;10.47;;;19.30;1.00;;;;;;5072863;28;20209;-62
2021/06/27 06:12:20;;;;;;;15.17;11.70;;;19.30;1.00;;;;;;5072646;28;20670;-62
2021/06/27 06:14:48;;;;;;;12.83;10.67;;;19.30;1.00;;;;;;5072634;28;20228;-62
2021/06/27 06:17:15;;;;;;;13.77;11.27;;;19.50;1.00;;;;;;5072625;28;20205;-62
2021/06/27 06:19:42;;;;;;;12.80;10.00;;;19.50;1.00;;;;;;5072387;28;20270;-62
2021/06/27 06:22:09;;;;;;;11.47;10.13;;;19.60;99.90;;;;;;5072478;28;20212;-62
2021/06/27 06:24:36;;;;;;;11.63;10.17;;;19.70;99.90;;;;;;5072181;28;20213;-62
2021/06/27 06:27:02;;;;;;;10.97;9.87;;;19.80;99.90;;;;;;5072387;28;20208;-62
2021/06/27 06:29:29;;;;;;;13.13;10.30;;;19.90;99.90;;;;;;5072306;28;20726;-62
2021/06/27 06:31:57;;;;;;;14.03;9.73;;;20.00;99.90;;;;;;5072291;28;20258;-62
2021/06/27 06:34:23;;;;;;;11.53;9.77;;;20.10;99.90;;;;;;5071898;28;20623;-62
2021/06/27 06:36:50;;;;;;;10.97;9.63;;;20.20;99.90;;;;;;5072289;28;20201;-62
2021/06/27 06:39:17;;;;;;;10.33;9.23;;;20.20;99.90;;;;;;5072351;28;20205;-62
2021/06/27 06:41:43;;;;;;;10.60;9.50;;;20.30;99.90;;;;;;5072411;28;20299;-62
2021/06/27 06:44:10;;;;;;;11.47;9.47;;;20.40;99.90;;;;;;5072198;28;20246;-62
2021/06/27 06:46:37;;;;;;;11.20;9.10;;;20.50;99.90;;;;;;5072124;28;20805;-62
2021/06/27 06:49:05;;;;;;;9.43;8.53;;;20.60;99.90;;;;;;5072133;28;20212;-62
2021/06/27 06:51:31;;;;;;;11.67;9.13;;;20.70;99.90;;;;;;5072232;28;20263;-62
2021/06/27 06:53:58;;;;;;;9.90;8.07;;;20.90;99.90;;;;;;5072009;28;20289;-62
2021/06/27 06:56:25;;;;;;;9.43;8.40;;;21.00;99.90;;;;;;5071784;28;20649;-62
2021/06/27 06:58:51;;;;;;;11.57;8.13;;;21.10;99.90;;;;;;5072119;28;20228;-62
2021/06/27 07:01:18;;;;;;;11.37;8.23;;;21.30;99.90;;;;;;5071963;28;20665;-62
2021/06/27 07:03:45;;;;;;;9.07;8.17;;;21.40;99.90;;;;;;5072056;28;20212;-62
2021/06/27 07:06:13;;;;;;;10.17;8.07;;;21.60;99.90;;;;;;5072208;28;20290;-62
2021/06/27 07:08:41;;;;;;;8.90;8.00;;;21.80;99.90;;;;;;5071929;28;20205;-62
2021/06/27 07:11:08;;;;;;;10.77;8.50;;;22.00;99.90;;;;;;5072079;28;20262;-63
2021/06/27 07:13:35;;;;;;;9.93;8.97;;;22.10;99.90;;;;;;5071668;28;20290;-62
2021/06/27 07:16:01;;;;;;;10.30;8.23;;;22.20;99.90;;;;;;5071682;28;20298;-63
2021/06/27 07:18:28;;;;;;;10.90;7.90;;;22.10;99.90;;;;;;5072060;28;20216;-63
2021/06/27 07:20:55;;;;;;;9.40;8.33;;;22.30;99.90;;;;;;5072158;28;20282;-63
2021/06/27 07:23:22;;;;;;;9.20;7.87;;;22.50;99.90;;;;;;5071828;28;20607;-63
2021/06/27 07:25:49;;;;;;;9.27;8.00;;;22.70;99.90;;;;;;5071710;28;20228;-63
2021/06/27 07:28:16;;;;;;;8.60;7.70;;;22.80;99.90;;;;;;5071733;28;20635;-63
2021/06/27 07:30:42;;;;;;;11.30;8.27;;;23.10;99.90;;;;;;5071661;28;20274;-63
2021/06/27 07:33:11;;;;;;;8.77;7.73;;;23.20;99.90;;;;;;5071762;28;20255;-63
2021/06/27 07:35:38;;;;;;;10.57;9.00;;;23.20;99.90;;;;;;5071549;28;20229;-63
2021/06/27 07:38:05;;;;;;;13.40;8.70;;;23.00;99.90;;;;;;5071871;28;20208;-63
2021/06/27 07:40:33;;;;;;;8.87;7.97;;;23.10;99.90;;;;;;5071605;28;20231;-63
2021/06/27 07:42:59;;;;;;;8.93;7.60;;;23.00;99.90;;;;;;5071487;28;20201;-63
2021/06/27 07:45:26;;;;;;;10.27;8.30;;;23.10;99.90;;;;;;5071456;28;20225;-63
2021/06/27 07:47:52;;;;;;;8.63;7.23;;;23.30;99.90;;;;;;5071739;28;20205;-63
2021/06/27 07:50:19;;;;;;;11.20;8.33;;;23.50;99.90;;;;;;5071408;28;20718;-63
2021/06/27 07:52:46;;;;;;;9.70;8.33;;;23.70;99.90;;;;;;5071541;28;20233;-63
2021/06/27 07:55:13;;;;;;;9.37;8.23;;;23.50;99.90;;;;;;5071231;28;20221;-63
2021/06/27 07:57:41;;;;;;;11.03;8.30;;;23.30;99.90;;;;;;5071308;28;20673;-63
2021/06/27 08:00:10;;;;;;;9.87;7.90;;;23.40;99.90;;;;;;5069267;28;20267;-67
2021/06/27 08:02:37;;;;;;;8.70;7.80;;;23.60;99.90;;;;;;5071306;28;20295;-67
2021/06/27 08:05:05;;;;;;;8.03;6.63;;;23.90;99.90;;;;;;5069617;28;20229;-67
2021/06/27 08:07:31;;;;;;;8.17;7.30;;;24.20;99.90;;;;;;5070935;28;20209;-66
2021/06/27 08:09:58;;;;;;;9.90;7.93;;;24.30;99.90;;;;;;5073821;28;20209;-67
2021/06/27 08:12:24;;;;;;;9.43;7.70;;;24.60;99.90;;;;;;5074607;28;20242;-66
2021/06/27 08:14:52;;;;;;;8.57;7.30;;;24.70;99.90;;;;;;5074542;28;20229;-66
2021/06/27 08:17:19;;;;;;;7.83;7.03;;;24.90;99.90;;;;;;5074823;28;20619;-66
2021/06/27 08:19:46;;;;;;;8.07;7.27;;;25.00;99.90;;;;;;5074922;28;20208;-67
2021/06/27 08:22:13;;;;;;;8.20;7.40;;;25.30;99.90;;;;;;5075076;28;20205;-67
2021/06/27 08:24:40;;;;;;;8.13;7.30;;;25.50;99.90;;;;;;5074899;28;20205;-67
2021/06/27 08:27:07;;;;;;;8.10;7.30;;;25.60;99.90;;;;;;5074592;28;20581;-67
2021/06/27 08:29:34;;;;;;;8.70;7.50;;;25.70;99.90;;;;;;5074866;28;20201;-67
2021/06/27 08:32:02;;;;;;;8.43;7.43;;;25.50;99.90;;;;;;5074882;28;20628;-67
2021/06/27 08:34:29;;;;;;;8.30;7.30;;;25.70;99.90;;;;;;5074288;28;20225;-67
2021/06/27 08:36:56;;;;;;;8.40;7.50;;;25.90;99.90;;;;;;5074746;28;20281;-67
2021/06/27 08:39:22;;;;;;;8.57;7.57;;;25.60;99.90;;;;;;5074440;28;20205;-67
2021/06/27 08:41:49;;;;;;;11.80;7.77;;;25.80;99.90;;;;;;5074779;28;20217;-66
2021/06/27 08:44:16;;;;;;;9.77;7.00;;;26.00;99.90;;;;;;5074386;28;20201;-66
2021/06/27 08:46:44;;;;;;;8.40;6.90;;;26.00;99.90;;;;;;5074455;28;20251;-67
2021/06/27 08:49:13;;;;;;;8.40;7.20;;;25.60;99.90;;;;;;5074456;28;20762;-66
2021/06/27 08:51:40;;;;;;;8.27;7.37;;;25.70;99.90;;;;;;5074357;28;20634;-66
2021/06/27 08:54:08;;;;;;;8.33;7.53;;;25.70;99.90;;;;;;5074091;28;20236;-67
2021/06/27 08:56:36;;;;;;;8.37;7.53;;;25.90;99.90;;;;;;5071980;28;20224;-69
2021/06/27 08:59:03;;;;;;;8.90;7.53;;;26.00;99.90;;;;;;5067388;28;20220;-67
2021/06/27 09:01:29;;;;;;;9.17;7.40;;;26.00;99.90;;;;;;5070753;28;20208;-66
2021/06/27 09:03:57;;;;;;;8.77;7.47;;;26.00;99.90;;;;;;5070658;28;20307;-66
2021/06/27 09:06:26;;;;;;;8.23;6.90;;;26.10;99.90;;;;;;5070233;28;20256;-66
2021/06/27 09:09:09;;;;;;;8.00;7.20;;;26.10;99.90;;;;;;5070476;28;20221;-66
2021/06/27 09:11:36;;;;;;;8.37;7.57;;;26.00;99.90;;;;;;5070611;28;20748;-66
2021/06/27 09:14:04;;;;;;;8.00;7.20;;;26.00;99.90;;;;;;5070356;28;20232;-66
2021/06/27 09:16:31;;;;;;;8.43;7.53;;;26.10;99.90;;;;;;5070355;28;20229;-66
2021/06/27 09:19:01;;;;;;;8.00;6.97;;;25.90;99.90;;;;;;5070205;28;20298;-67
2021/06/27 09:21:30;;;;;;;7.60;6.80;;;26.00;99.90;;;;;;5070087;28;20697;-66
2021/06/27 09:23:57;;;;;;;8.13;7.33;;;26.00;99.90;;;;;;5070457;28;20200;-66
2021/06/27 09:26:29;;;;;;;7.93;6.80;;;26.00;99.90;;;;;;5070064;28;20232;-66
2021/06/27 09:28:56;;;;;;;7.43;6.73;;;26.00;99.90;;;;;;5069934;28;20213;-68
2021/06/27 09:31:33;;;;;;;8.30;6.80;;;26.10;99.90;;;;;;5069862;28;20205;-67
2021/06/27 09:34:01;;;;;;;7.80;7.00;;;26.00;99.90;;;;;;5069936;28;20228;-68
2021/06/27 09:36:29;;;;;;;8.90;7.33;;;25.70;99.90;;;;;;5070184;28;20229;-68
2021/06/27 09:38:57;;;;;;;9.13;7.07;;;25.60;99.90;;;;;;5070171;28;20215;-68
2021/06/27 09:41:27;;;;;;;7.97;7.23;;;25.60;99.90;;;;;;5069931;28;20303;-69
2021/06/27 09:43:56;;;;;;;8.33;7.07;;;25.70;99.90;;;;;;5070008;28;20209;-73
2021/06/27 09:46:35;;;;;;;10.10;6.93;;;25.80;99.90;;;;;;5069975;28;20239;-69
2021/06/27 09:49:06;;;;;;;7.83;7.03;;;26.00;99.90;;;;;;5069940;28;20655;-68
2021/06/27 09:51:35;;;;;;;7.53;6.83;;;25.90;99.90;;;;;;5069905;28;20221;-69
2021/06/27 09:54:03;;;;;;;7.70;7.00;;;26.10;99.90;;;;;;5069502;28;20227;-69
2021/06/27 09:56:37;;;;;;;7.73;6.93;;;26.30;99.90;;;;;;5069217;28;20278;-68
2021/06/27 09:59:06;;;;;;;9.77;7.93;;;26.00;99.90;;;;;;5069536;28;20208;-68
2021/06/27 10:01:34;;;;;;;8.00;7.20;;;26.00;99.90;;;;;;5069353;28;20770;-67
2021/06/27 10:04:03;;;;;;;8.50;7.00;;;26.20;99.90;;;;;;5069448;28;20213;-65
2021/06/27 10:06:31;;;;;;;7.77;7.07;;;26.40;99.90;;;;;;5069233;28;20583;-65
2021/06/27 10:09:10;;;;;;;7.43;6.73;;;26.50;99.90;;;;;;5069084;28;20984;-65
2021/06/27 10:11:37;;;;;;;8.47;7.30;;;26.50;99.90;;;;;;5069359;28;20739;-64
2021/06/27 10:14:10;;;;;;;7.43;6.73;;;26.40;99.90;;;;;;5069240;28;20298;-64
2021/06/27 10:21:49;;;;;;;8.47;6.73;;;26.80;99.90;;;;;;4139811;23;20364;-67
2021/06/27 10:24:20;;;;;;;7.67;6.97;;;26.90;99.90;;;;;;5068791;28;20232;-68
2021/06/27 10:26:46;;;;;;;7.40;6.77;;;27.00;99.90;;;;;;5068920;28;20256;-69
2021/06/27 10:29:14;;;;;;;8.63;6.73;;;27.10;99.90;;;;;;5068796;28;20742;-70
2021/06/27 10:31:41;;;;;;;7.20;6.50;;;27.10;99.90;;;;;;5068316;28;20342;-68
2021/06/27 10:34:08;;;;;;;7.03;6.33;;;27.40;99.90;;;;;;5068003;28;20205;-69
2021/06/27 10:36:37;;;;;;;8.43;7.03;;;27.40;99.90;;;;;;5069157;28;20229;-69
2021/06/27 10:39:11;;;;;;;8.13;6.30;;;27.50;99.90;;;;;;5069213;28;20244;-69
2021/06/27 10:41:56;;;;;;;7.60;6.90;;;27.60;99.90;;;;;;5067966;28;20205;-70
2021/06/27 10:44:25;;;;;;;7.23;6.53;;;27.50;99.90;;;;;;5068452;28;20225;-67
2021/06/27 10:46:54;;;;;;;6.83;6.10;;;27.50;99.90;;;;;;5068579;28;20562;-67
2021/06/27 10:50:08;;;;;;;8.23;6.83;;;27.50;99.90;;;;;;5068665;28;20235;-67
2021/06/27 10:53:02;;;;;;;7.80;6.43;;;27.50;99.90;;;;;;5068206;28;20308;-66
2021/06/27 10:55:31;;;;;;;8.07;7.00;;;27.60;99.90;;;;;;5068774;28;20278;-67
2021/06/27 10:58:05;;;;;;;8.57;6.43;;;27.50;99.90;;;;;;5068640;28;20216;-68
2021/06/27 11:01:05;;;;;;;7.53;6.73;;;27.50;99.90;;;;;;5068697;28;20953;-67
2021/06/27 11:03:35;;;;;;;7.00;6.30;;;27.50;99.90;;;;;;5068414;28;20888;-67
2021/06/27 11:06:03;;;;;;;8.13;6.47;;;27.40;99.90;;;;;;5068759;28;20266;-67
2021/06/27 11:08:32;;;;;;;7.07;6.37;;;27.40;99.90;;;;;;5068520;28;20588;-67
2021/06/27 11:11:01;;;;;;;6.70;6.10;;;27.30;99.90;;;;;;5068793;28;20208;-67
2021/06/27 11:13:29;;;;;;;6.40;5.77;;;27.20;99.90;;;;;;5068982;28;20212;-66
2021/06/27 11:16:11;;;;;;;6.93;6.33;;;27.30;99.90;;;;;;5068617;28;20229;-67
2021/06/27 11:18:40;;;;;;;8.90;6.20;;;27.20;99.90;;;;;;5068543;28;20303;-67
2021/06/27 11:21:21;;;;;;;6.50;5.90;;;27.00;99.90;;;;;;5068601;28;20220;-67
2021/06/27 11:23:57;;;;;;;7.53;6.63;;;27.20;99.90;;;;;;5068464;28;20693;-67
2021/06/27 11:27:00;;;;;;;6.67;5.83;;;27.40;99.90;;;;;;5068650;28;20228;-67
2021/06/27 11:29:48;;;;;;;6.47;5.70;;;27.60;99.90;;;;;;5068313;28;20215;-67
2021/06/27 11:32:45;;;;;;;6.80;6.10;;;27.80;99.90;;;;;;5068186;28;20251;-67
2021/06/27 11:35:37;;;;;;;6.70;5.90;;;27.90;99.90;;;;;;5068206;28;20221;-67
2021/06/27 11:38:04;;;;;;;6.77;6.07;;;28.10;99.90;;;;;;5067929;28;20213;-67
2021/06/27 11:40:42;;;;;;;6.67;5.97;;;27.80;99.90;;;;;;5067890;28;20213;-67
2021/06/27 11:43:09;;;;;;;5.90;5.40;;;27.60;99.90;;;;;;5069557;28;20270;-67
2021/06/27 11:45:45;;;;;;;6.67;6.07;;;27.40;99.90;;;;;;5071944;28;20233;-67
2021/06/27 11:48:12;;;;;;;7.07;6.10;;;27.60;99.90;;;;;;5072070;28;20208;-67
2021/06/27 11:50:42;;;;;;;6.80;6.00;;;27.60;99.90;;;;;;5071856;28;20801;-67
2021/06/27 11:53:11;;;;;;;6.10;5.50;;;27.30;99.90;;;;;;5071780;28;20299;-67
2021/06/27 11:55:40;;;;;;;6.60;6.00;;;27.20;99.90;;;;;;5071715;28;20271;-67
2021/06/27 11:58:09;;;;;;;6.40;5.80;;;27.40;99.90;;;;;;5071788;28;20217;-67
2021/06/27 12:00:38;;;;;;;6.50;5.60;;;27.70;99.90;;;;;;5071910;28;20205;-67
2021/06/27 12:03:08;;;;;;;6.60;5.93;;;28.00;99.90;;;;;;5071970;28;20236;-67
2021/06/27 12:05:37;;;;;;;6.27;5.70;;;28.10;99.90;;;;;;5070873;28;20286;-72
2021/06/27 12:08:06;;;;;;;6.27;5.57;;;28.10;99.90;;;;;;5073041;28;20728;-70
2021/06/27 12:10:33;;;;;;;6.23;5.63;;;27.90;99.90;;;;;;5072407;28;20300;-70
2021/06/27 12:13:09;;;;;;;6.67;6.03;;;27.70;99.90;;;;;;5072221;28;20212;-73
2021/06/27 12:15:38;;;;;;;6.80;6.20;;;27.80;99.90;;;;;;5072958;28;20271;-72
2021/06/27 12:18:09;;;;;;;6.37;5.77;;;27.80;99.90;;;;;;5071819;28;20212;-70
2021/06/27 12:20:40;;;;;;;6.60;5.70;;;27.80;99.90;;;;;;5075456;28;20688;-67
2021/06/27 12:23:08;;;;;;;6.33;5.57;;;27.60;99.90;;;;;;5071096;28;20216;-67
2021/06/27 12:25:38;;;;;;;6.80;6.00;;;27.60;99.90;;;;;;5071093;28;20282;-66
2021/06/27 12:28:07;;;;;;;6.33;5.73;;;27.50;99.90;;;;;;5071126;28;20212;-67
2021/06/27 12:30:39;;;;;;;6.17;5.57;;;27.60;99.90;;;;;;5071503;28;20275;-67
2021/06/27 12:33:09;;;;;;;6.20;5.57;;;27.60;99.90;;;;;;5071644;28;20217;-67
2021/06/27 12:35:39;;;;;;;6.03;5.43;;;27.40;99.90;;;;;;5071565;28;20278;-68
2021/06/27 12:38:08;;;;;;;5.90;5.30;;;27.50;99.90;;;;;;5071341;28;20245;-70
2021/06/27 12:40:40;;;;;;;6.27;5.10;;;27.50;99.90;;;;;;5071440;28;20209;-68
2021/06/27 12:43:20;;;;;;;6.47;5.87;;;27.60;99.90;;;;;;5070588;28;20744;-70
2021/06/27 12:45:47;;;;;;;5.80;5.30;;;27.60;99.90;;;;;;5070897;28;20233;-69
2021/06/27 12:48:15;;;;;;;7.17;6.20;;;28.00;99.90;;;;;;5070857;28;20684;-69
2021/06/27 12:50:42;;;;;;;5.33;4.83;;;28.40;99.90;;;;;;5071514;28;20299;-69